MAPA DE AEROPUERTO

INFORMACIÓN METAR y TAF

METAR FOR EDDP
ADDS - METARS form results

(2359 UTC 25 September 2020)
Data provider http://aviationweather.gov/metar/data/
 
METAR text: EDDP 252350Z 23008KT 9999 BKN046 11/07 Q0997 NOSIG
Conditions at: EDDP (LEIPZIG/SCHKEUDI, DE) observed 2350 UTC 25 September 2020
Temperature: 11.0°C (52°F)
Dewpoint: 7.0°C (45°F) [RH = 76%]
Pressure (altimeter): 29.44 inches Hg (997.0 mb)
Winds: from the SW (230 degrees) at 9 MPH (8 knots; 4.1 m/s)
Visibility: 6 or more miles (10+ km)
Ceiling: 4600 feet AGL
Clouds: broken clouds at 4600 feet AGL
Weather: no significant weather observed at this time

METAR text: EDDP 252320Z 21006KT 9999 FEW034 11/07 Q0997 NOSIG
Conditions at: EDDP (LEIPZIG/SCHKEUDI, DE) observed 2320 UTC 25 September 2020
Temperature: 11.0°C (52°F)
Dewpoint: 7.0°C (45°F) [RH = 76%]
Pressure (altimeter): 29.44 inches Hg (997.0 mb)
Winds: from the SSW (210 degrees) at 7 MPH (6 knots; 3.1 m/s)
Visibility: 6 or more miles (10+ km)
Ceiling: at least 12,000 feet AGL
Clouds: few clouds at 3400 feet AGL
Weather: no significant weather observed at this time

Forecast for: EDDP (LEIPZIG/SCHKEUDI, DE)
Text: TAF EDDP 252300Z 2600/2624 20004KT CAVOK
Forecast period: 0000 to 0600 UTC 26 September 2020
Forecast type: FROM: standard forecast or significant change
Winds: from the SSW (200 degrees) at 5 MPH (4 knots; 2.1 m/s)
Visibility: 6 or more miles (10+ km)
Ceiling: unknown
Clouds: missing
Weather: NSW  (no significant weather)
Text: BECMG 2606/2609 28005KT
Forecast period: 0600 to 1600 UTC 26 September 2020
Forecast type: BECOMING: Conditions expected to become as follows by 0900 UTC 26 September 2020
Winds: from the W (280 degrees) at 6 MPH (5 knots; 2.6 m/s)
Visibility: 6 or more miles (10+ km)
Ceiling: unknown
Clouds: missing
Weather: NSW  (no significant weather)
Text: PROB40
Forecast period: 0600 to 1500 UTC 26 September 2020
Forecast type: TEMPORARY: The following changes expected for less than half the time period
Visibility: 2.49 miles (4.01 km)
Ceiling: 600 feet AGL
Clouds: broken clouds at 600 feet AGL
Weather: RA  (moderate rain)
Text: TEMPO 2606/2615 4000 RA BKN006
Forecast period: 1600 UTC 26 September 2020 to 0000 UTC 27 September 2020
Forecast type: BECOMING: Conditions expected to become as follows by 1900 UTC 26 September 2020
Winds: from the SSW (200 degrees) at 5 MPH (4 knots; 2.1 m/s)
Visibility: 6 or more miles (10+ km)
Ceiling: unknown
Clouds: missing
Weather: NSW  (no significant weather)